Logan, Ohio
Current Conditions -  °F | °C
As of 4:53 PM on Thursday 18 Dec 2014 (Local Time) from KLHQ Reporting Station
Light Snow Light Snow  
Wind Chill: 28°   Ceiling: 1800
Heat Index: 28°   Visibility: 5mi
Dew Point: 22°   Wind: 3mph
Humidity: 78%   Direction: 280°W
Pressure: 30.22"   Gusts: NA
Location:  39.54°N, 82.41°W
Report Text: KLHQ 182153Z AUTO 28003KT 5SM -SN OVC018 M02/M06 A3022 RMK AO2 SNB48 SLP242 P0000 T10221056
Loading
Personal Weather Stations






























Interactive Weather Map New forecast layout! Learn more

10-Day Weather Forecast

Advertisements
Track Severe Weather on mobile